Time;durP1;ratioP1;P1;durP2;ratioP2;P2;SDS_P1;SDS_P2;PMS_P1;PMS_P2;Temp;Humidity;BMP_temperature;BMP_pressure;BME280_temperature;BME280_humidity;BME280_pressure;Samples;Min_cycle;Max_cycle;Signal;HPM_P1;HPM_P2
2022/12/29 00:01:55;;;;;;;;;;;;;;;;;;5051955;28;1135;-73
2022/12/29 00:04:21;;;;;;;;;;;;;;;;;;5052448;28;1052;-73
2022/12/29 00:06:48;;;;;;;;;;;;;;;;;;5052382;28;1975;-71
2022/12/29 00:09:14;;;;;;;;;;;;;;;;;;5051002;28;1048;-73
2022/12/29 00:11:42;;;;;;;;;;;;;;;;;;5051842;28;901;-72
2022/12/29 00:16:53;;;;;;;;;;;;;;;;;;5052139;28;1352;-72
2022/12/29 00:35:45;;;;;;;;;;;;;;;;;;5034060;28;1411;-73
2022/12/29 00:46:24;;;;;;;;;;;;;;;;;;5033901;28;1306;-72
2022/12/29 00:51:34;;;;;;;;;;;;;;;;;;5033152;28;1212;-72
2022/12/29 00:54:00;;;;;;;;;;;;;;;;;;5051851;28;782;-73
2022/12/29 00:56:27;;;;;;;;;;;;;;;;;;5050438;28;1328;-71
2022/12/29 00:58:54;;;;;;;;;;;;;;;;;;5033996;28;1160;-73
2022/12/29 01:01:20;;;;;;;;;;;;;;;;;;5049957;28;1202;-72
2022/12/29 01:03:46;;;;;;;;;;;;;;;;;;5033944;28;1318;-71
2022/12/29 01:06:13;;;;;;;;;;;;;;;;;;5018822;28;1369;-72
2022/12/29 01:08:39;;;;;;;;;;;;;;;;;;5013383;28;1981;-71
2022/12/29 01:11:05;;;;;;;;;;;;;;;;;;5036135;28;754;-71
2022/12/29 01:13:31;;;;;;;;;;;;;;;;;;5017301;28;1311;-71
2022/12/29 01:15:58;;;;;;;;;;;;;;;;;;5018101;28;1368;-71
2022/12/29 01:18:25;;;;;;;;;;;;;;;;;;5018173;28;1245;-72
2022/12/29 01:20:51;;;;;;;;;;;;;;;;;;5031665;28;1214;-72
2022/12/29 01:23:18;;;;;;;;;;;;;;;;;;5036901;28;1148;-72
2022/12/29 01:25:45;;;;;;;;;;;;;;;;;;5037364;28;1411;-71
2022/12/29 01:28:11;;;;;;;;;;;;;;;;;;5037685;28;1914;-72
2022/12/29 01:30:38;;;;;;;;;;;;;;;;;;5037490;28;1843;-72
2022/12/29 01:33:05;;;;;;;;;;;;;;;;;;5053664;28;1219;-72
2022/12/29 01:35:31;;;;;;;;;;;;;;;;;;5055272;28;1333;-72
2022/12/29 01:37:58;;;;;;;;;;;;;;;;;;5037556;28;1225;-72
2022/12/29 01:40:24;;;;;;;;;;;;;;;;;;5053823;28;1203;-71
2022/12/29 01:42:51;;;;;;;;;;;;;;;;;;5054692;28;788;-72
2022/12/29 01:45:17;;;;;;;;;;;;;;;;;;5055374;28;1312;-72
2022/12/29 01:47:45;;;;;;;;;;;;;;;;;;5056575;28;1915;-73
2022/12/29 01:50:13;;;;;;;;;;;;;;;;;;5056056;28;1229;-72
2022/12/29 01:52:40;;;;;;;;;;;;;;;;;;5055274;28;1107;-72
2022/12/29 01:55:07;;;;;;;;;;;;;;;;;;5053835;28;1310;-71
2022/12/29 01:57:34;;;;;;;;;;;;;;;;;;5040773;28;1636;-72
2022/12/29 02:00:01;;;;;;;;;;;;;;;;;;5017021;28;1410;-71
2022/12/29 02:02:38;;;;;;;;;;;;;;;;;;5034309;28;668;-71
2022/12/29 02:05:06;;;;;;;;;;;;;;;;;;5017493;28;1096;-71
2022/12/29 02:07:34;;;;;;;;;;;;;;;;;;5033914;28;1973;-72
2022/12/29 02:10:00;;;;;;;;;;;;;;;;;;5053422;28;1148;-73
2022/12/29 02:12:26;;;;;;;;;;;;;;;;;;5036130;28;1258;-72
2022/12/29 02:14:54;;;;;;;;;;;;;;;;;;5036506;28;1526;-72
2022/12/29 02:17:22;;;;;;;;;;;;;;;;;;5036272;28;1508;-71
2022/12/29 02:20:05;;;;;;;;;;;;;;;;;;5036292;28;1263;-72
2022/12/29 02:22:31;;;;;;;;;;;;;;;;;;5053905;28;925;-71
2022/12/29 02:25:07;;;;;;;;;;;;;;;;;;5036701;28;1156;-71
2022/12/29 02:27:53;;;;;;;;;;;;;;;;;;5036489;28;1910;-71
2022/12/29 02:30:39;;;;;;;;;;;;;;;;;;5036479;28;1344;-72
2022/12/29 02:33:08;;;;;;;;;;;;;;;;;;5035755;28;1283;-71
2022/12/29 02:35:36;;;;;;;;;;;;;;;;;;5036673;28;1381;-73
2022/12/29 02:38:04;;;;;;;;;;;;;;;;;;5036645;28;1631;-71
2022/12/29 02:40:32;;;;;;;;;;;;;;;;;;5036468;28;1105;-71
2022/12/29 02:43:00;;;;;;;;;;;;;;;;;;5035359;28;1221;-71
2022/12/29 02:45:27;;;;;;;;;;;;;;;;;;5035955;28;1323;-72
2022/12/29 02:47:55;;;;;;;;;;;;;;;;;;5054093;28;1910;-72
2022/12/29 02:50:24;;;;;;;;;;;;;;;;;;5036148;28;1160;-71
2022/12/29 02:52:51;;;;;;;;;;;;;;;;;;5035435;28;1549;-72
2022/12/29 02:55:16;;;;;;;;;;;;;;;;;;5036052;28;1302;-71
2022/12/29 02:57:42;;;;;;;;;;;;;;;;;;5036358;28;1140;-72
2022/12/29 03:00:09;;;;;;;;;;;;;;;;;;5053954;28;810;-71
2022/12/29 03:02:47;;;;;;;;;;;;;;;;;;5035132;28;1168;-70
2022/12/29 03:05:37;;;;;;;;;;;;;;;;;;5032577;28;1323;-72
2022/12/29 03:08:06;;;;;;;;;;;;;;;;;;5025381;28;1906;-71
2022/12/29 03:10:36;;;;;;;;;;;;;;;;;;5051934;28;1056;-72
2022/12/29 03:16:03;;;;;;;;;;;;;;;;;;5035833;28;1302;-73
2022/12/29 03:18:40;;;;;;;;;;;;;;;;;;5035768;28;1333;-72
2022/12/29 03:21:07;;;;;;;;;;;;;;;;;;5035798;28;1316;-72
2022/12/29 03:23:35;;;;;;;;;;;;;;;;;;5034741;28;1316;-71
2022/12/29 03:26:02;;;;;;;;;;;;;;;;;;5053310;28;1286;-72
2022/12/29 03:28:29;;;;;;;;;;;;;;;;;;5035130;28;1902;-72
2022/12/29 03:30:55;;;;;;;;;;;;;;;;;;5035457;28;1354;-71
2022/12/29 03:33:24;;;;;;;;;;;;;;;;;;5034674;28;1324;-71
2022/12/29 03:35:51;;;;;;;;;;;;;;;;;;5035359;28;1304;-71
2022/12/29 03:38:18;;;;;;;;;;;;;;;;;;5035203;28;1345;-71
2022/12/29 03:40:46;;;;;;;;;;;;;;;;;;5068271;28;1632;-72
2022/12/29 03:43:12;;;;;;;;;;;;;;;;;;5047220;28;1361;-73
2022/12/29 03:45:39;;;;;;;;;;;;;;;;;;5015181;28;1294;-72
2022/12/29 03:48:05;;;;;;;;;;;;;;;;;;5015226;28;1910;-73
2022/12/29 03:50:32;;;;;;;;;;;;;;;;;;5026810;28;1513;-71
2022/12/29 03:52:58;;;;;;;;;;;;;;;;;;5050935;28;1341;-72
2022/12/29 03:55:26;;;;;;;;;;;;;;;;;;5051467;28;1358;-72
2022/12/29 03:57:54;;;;;;;;;;;;;;;;;;5051992;28;1218;-72
2022/12/29 04:00:34;;;;;;;;;;;;;;;;;;5034878;28;1369;-73
2022/12/29 04:03:00;;;;;;;;;;;;;;;;;;5033810;28;1164;-73
2022/12/29 04:05:27;;;;;;;;;;;;;;;;;;5034746;28;1275;-73
2022/12/29 04:07:54;;;;;;;;;;;;;;;;;;5051386;28;1906;-71
2022/12/29 04:10:21;;;;;;;;;;;;;;;;;;5033049;28;1142;-72
2022/12/29 04:12:55;;;;;;;;;;;;;;;;;;5051722;28;810;-72
2022/12/29 04:15:23;;;;;;;;;;;;;;;;;;5051056;28;1419;-73
2022/12/29 04:17:50;;;;;;;;;;;;;;;;;;5051367;28;1228;-73
2022/12/29 04:23:05;;;;;;;;;;;;;;;;;;5033875;28;1748;-72
2022/12/29 04:25:33;;;;;;;;;;;;;;;;;;5033222;28;1316;-73
2022/12/29 04:28:01;;;;;;;;;;;;;;;;;;5049665;28;1913;-72
2022/12/29 04:30:46;;;;;;;;;;;;;;;;;;5033131;28;1419;-73
2022/12/29 04:33:17;;;;;;;;;;;;;;;;;;5032239;28;1678;-73
2022/12/29 04:35:44;;;;;;;;;;;;;;;;;;5047941;28;1497;-71
2022/12/29 04:38:10;;;;;;;;;;;;;;;;;;5027890;28;1397;-71
2022/12/29 04:40:38;;;;;;;;;;;;;;;;;;5042114;28;1315;-73
2022/12/29 04:43:06;;;;;;;;;;;;;;;;;;5031185;28;1349;-72
2022/12/29 04:45:36;;;;;;;;;;;;;;;;;;5023841;28;1495;-72
2022/12/29 04:48:21;;;;;;;;;;;;;;;;;;5024521;28;1914;-72
2022/12/29 04:51:06;;;;;;;;;;;;;;;;;;5045294;28;1408;-72
2022/12/29 04:53:37;;;;;;;;;;;;;;;;;;5027942;28;1360;-73
2022/12/29 04:56:04;;;;;;;;;;;;;;;;;;5033405;28;1558;-74
2022/12/29 04:58:32;;;;;;;;;;;;;;;;;;5051207;28;1425;-72
2022/12/29 05:00:59;;;;;;;;;;;;;;;;;;5037423;28;1307;-72
2022/12/29 05:03:29;;;;;;;;;;;;;;;;;;5046866;28;1407;-73
2022/12/29 05:05:55;;;;;;;;;;;;;;;;;;5050359;28;1431;-73
2022/12/29 05:08:22;;;;;;;;;;;;;;;;;;5033809;28;1914;-73
2022/12/29 05:10:48;;;;;;;;;;;;;;;;;;5020988;28;1422;-70
2022/12/29 05:13:17;;;;;;;;;;;;;;;;;;5023933;28;1613;-72
2022/12/29 05:15:47;;;;;;;;;;;;;;;;;;5029911;28;1428;-72
2022/12/29 05:18:13;;;;;;;;;;;;;;;;;;5024641;28;1312;-74
2022/12/29 05:20:40;;;;;;;;;;;;;;;;;;5032824;28;1341;-73
2022/12/29 05:23:06;;;;;;;;;;;;;;;;;;5032025;28;1453;-73
2022/12/29 05:25:32;;;;;;;;;;;;;;;;;;5043246;22;4068;-74
2022/12/29 05:28:10;;;;;;;;;;;;;;;;;;5049173;28;1914;-73
2022/12/29 05:30:50;;;;;;;;;;;;;;;;;;5049498;28;999;-73
2022/12/29 05:33:18;;;;;;;;;;;;;;;;;;5048198;28;1318;-74
2022/12/29 05:35:44;;;;;;;;;;;;;;;;;;5049249;28;1313;-73
2022/12/29 05:38:10;;;;;;;;;;;;;;;;;;5049485;28;1312;-74
2022/12/29 05:40:37;;;;;;;;;;;;;;;;;;5043863;28;1409;-73
2022/12/29 05:43:11;;;;;;;;;;;;;;;;;;5028799;28;1620;-73
2022/12/29 05:46:02;;;;;;;;;;;;;;;;;;5030497;28;1309;-73
2022/12/29 05:48:43;;;;;;;;;;;;;;;;;;5029184;28;1910;-73
2022/12/29 05:51:16;;;;;;;;;;;;;;;;;;5045169;28;1271;-73
2022/12/29 05:53:47;;;;;;;;;;;;;;;;;;5028858;28;1334;-73
2022/12/29 05:56:15;;;;;;;;;;;;;;;;;;5031997;28;1368;-74
2022/12/29 05:58:41;;;;;;;;;;;;;;;;;;5034116;28;1328;-73
2022/12/29 06:01:09;;;;;;;;;;;;;;;;;;5034099;28;1484;-73
2022/12/29 06:03:35;;;;;;;;;;;;;;;;;;5033384;28;1196;-73
2022/12/29 06:06:02;;;;;;;;;;;;;;;;;;5034662;28;1322;-73
2022/12/29 06:08:29;;;;;;;;;;;;;;;;;;5032586;28;1914;-73
2022/12/29 06:10:55;;;;;;;;;;;;;;;;;;5032448;28;1165;-73
2022/12/29 06:13:22;;;;;;;;;;;;;;;;;;5031666;28;1427;-73
2022/12/29 06:15:50;;;;;;;;;;;;;;;;;;5033896;28;1299;-73
2022/12/29 06:18:18;;;;;;;;;;;;;;;;;;5051569;28;1464;-73
2022/12/29 06:20:44;;;;;;;;;;;;;;;;;;5052809;28;1188;-74
2022/12/29 06:23:11;;;;;;;;;;;;;;;;;;5051792;28;1166;-74
2022/12/29 06:25:38;;;;;;;;;;;;;;;;;;5052058;28;1431;-75
2022/12/29 06:28:05;;;;;;;;;;;;;;;;;;5051109;28;1456;-72
2022/12/29 06:30:31;;;;;;;;;;;;;;;;;;5052198;28;1914;-74
2022/12/29 06:32:58;;;;;;;;;;;;;;;;;;5051356;28;1443;-74
2022/12/29 06:35:26;;;;;;;;;;;;;;;;;;5051989;28;1340;-75
2022/12/29 06:37:52;;;;;;;;;;;;;;;;;;5052049;28;1244;-74
2022/12/29 06:40:19;;;;;;;;;;;;;;;;;;5051888;28;1056;-75
2022/12/29 06:43:03;;;;;;;;;;;;;;;;;;5051159;28;1345;-74
2022/12/29 06:45:57;;;;;;;;;;;;;;;;;;5052014;28;1438;-75
2022/12/29 06:48:24;;;;;;;;;;;;;;;;;;5051786;28;1331;-75
2022/12/29 06:50:51;;;;;;;;;;;;;;;;;;5052807;28;2036;-75
2022/12/29 06:53:17;;;;;;;;;;;;;;;;;;5050921;28;1231;-75
2022/12/29 06:55:43;;;;;;;;;;;;;;;;;;5053184;28;1275;-74
2022/12/29 06:58:10;;;;;;;;;;;;;;;;;;5050444;28;2022;-75
2022/12/29 07:00:36;;;;;;;;;;;;;;;;;;5051795;28;1255;-74
2022/12/29 07:03:02;;;;;;;;;;;;;;;;;;5052180;28;712;-74
2022/12/29 07:05:31;;;;;;;;;;;;;;;;;;5051922;28;1281;-74
2022/12/29 07:07:58;;;;;;;;;;;;;;;;;;5051378;28;1060;-75
2022/12/29 07:10:25;;;;;;;;;;;;;;;;;;5052950;28;1918;-75
2022/12/29 07:12:51;;;;;;;;;;;;;;;;;;5052052;28;1106;-74
2022/12/29 07:15:17;;;;;;;;;;;;;;;;;;5051107;28;1431;-74
2022/12/29 07:17:43;;;;;;;;;;;;;;;;;;5052921;28;936;-74
2022/12/29 07:20:10;;;;;;;;;;;;;;;;;;5052444;28;1110;-74
2022/12/29 07:22:36;;;;;;;;;;;;;;;;;;5051227;28;1112;-74
2022/12/29 07:25:04;;;;;;;;;;;;;;;;;;5052256;28;1100;-73
2022/12/29 07:27:31;;;;;;;;;;;;;;;;;;5051091;28;1128;-74
2022/12/29 07:29:57;;;;;;;;;;;;;;;;;;5052534;28;1973;-74
2022/12/29 07:32:23;;;;;;;;;;;;;;;;;;5051490;28;925;-74
2022/12/29 07:34:49;;;;;;;;;;;;;;;;;;5052087;28;775;-75
2022/12/29 07:37:15;;;;;;;;;;;;;;;;;;5052043;28;1282;-75
2022/12/29 07:39:42;;;;;;;;;;;;;;;;;;5050858;28;1216;-75
2022/12/29 07:42:09;;;;;;;;;;;;;;;;;;5051336;28;1067;-74
2022/12/29 07:44:43;;;;;;;;;;;;;;;;;;5050670;28;1419;-74
2022/12/29 07:47:18;;;;;;;;;;;;;;;;;;5050611;28;1477;-74
2022/12/29 07:49:44;;;;;;;;;;;;;;;;;;5049504;28;2057;-75
2022/12/29 07:52:10;;;;;;;;;;;;;;;;;;5047897;28;1831;-76
2022/12/29 07:54:37;;;;;;;;;;;;;;;;;;5048340;28;1847;-74
2022/12/29 07:57:03;;;;;;;;;;;;;;;;;;5048096;28;1787;-74
2022/12/29 07:59:31;;;;;;;;;;;;;;;;;;5051477;28;1102;-74
2022/12/29 08:01:57;;;;;;;;;;;;;;;;;;5051082;28;1030;-74
2022/12/29 08:04:23;;;;;;;;;;;;;;;;;;5050257;28;1207;-75
2022/12/29 08:06:49;;;;;;;;;;;;;;;;;;5051657;28;1349;-75
2022/12/29 08:09:16;;;;;;;;;;;;;;;;;;5050645;28;2124;-75
2022/12/29 08:11:42;;;;;;;;;;;;;;;;;;5044627;28;2217;-75
2022/12/29 08:14:08;;;;;;;;;;;;;;;;;;5051577;28;2007;-75
2022/12/29 08:16:36;;;;;;;;;;;;;;;;;;5053163;28;1988;-75
2022/12/29 08:19:03;;;;;;;;;;;;;;;;;;5043582;28;1819;-75
2022/12/29 08:21:29;;;;;;;;;;;;;;;;;;5040683;28;1881;-75
2022/12/29 08:23:56;;;;;;;;;;;;;;;;;;5050084;28;1818;-74
2022/12/29 08:26:22;;;;;;;;;;;;;;;;;;5061013;28;1924;-75
2022/12/29 08:28:48;;;;;;;;;;;;;;;;;;5055595;28;2005;-74
2022/12/29 08:31:15;;;;;;;;;;;;;;;;;;5047586;28;1922;-74
2022/12/29 08:33:42;;;;;;;;;;;;;;;;;;5056755;28;2056;-74
2022/12/29 08:36:09;;;;;;;;;;;;;;;;;;5057010;28;1814;-76
2022/12/29 08:38:36;;;;;;;;;;;;;;;;;;5047983;28;2253;-74
2022/12/29 08:41:02;;;;;;;;;;;;;;;;;;5050279;28;1834;-75
2022/12/29 08:43:29;;;;;;;;;;;;;;;;;;5050046;28;2076;-75
2022/12/29 08:45:55;;;;;;;;;;;;;;;;;;5051506;28;1400;-76
2022/12/29 08:48:22;;;;;;;;;;;;;;;;;;5051665;28;783;-75
2022/12/29 08:50:49;;;;;;;;;;;;;;;;;;5050355;28;1914;-76
2022/12/29 08:53:16;;;;;;;;;;;;;;;;;;5048267;28;1250;-76
2022/12/29 08:55:42;;;;;;;;;;;;;;;;;;5052776;28;1344;-76
2022/12/29 08:58:08;;;;;;;;;;;;;;;;;;5051128;28;1331;-76
2022/12/29 09:00:38;;;;;;;;;;;;;;;;;;5050732;28;1247;-75
2022/12/29 09:03:04;;;;;;;;;;;;;;;;;;5066562;28;1193;-76
2022/12/29 09:05:30;;;;;;;;;;;;;;;;;;5048240;28;2084;-76
2022/12/29 09:07:58;;;;;;;;;;;;;;;;;;5049420;28;2054;-75
2022/12/29 09:10:24;;;;;;;;;;;;;;;;;;5056876;28;2081;-76
2022/12/29 09:12:50;;;;;;;;;;;;;;;;;;5048924;28;1959;-76
2022/12/29 09:15:16;;;;;;;;;;;;;;;;;;5049194;28;1815;-76
2022/12/29 09:17:44;;;;;;;;;;;;;;;;;;5057668;28;1930;-76
2022/12/29 09:20:10;;;;;;;;;;;;;;;;;;5048119;28;1919;-76
2022/12/29 09:22:37;;;;;;;;;;;;;;;;;;5049140;28;1817;-75
2022/12/29 09:25:05;;;;;;;;;;;;;;;;;;5049367;28;1814;-76
2022/12/29 09:27:31;;;;;;;;;;;;;;;;;;5051438;28;2291;-76
2022/12/29 09:29:57;;;;;;;;;;;;;;;;;;5051680;28;1955;-76
2022/12/29 09:32:23;;;;;;;;;;;;;;;;;;5054143;28;1062;-76
2022/12/29 09:34:50;;;;;;;;;;;;;;;;;;5055174;28;1111;-76
2022/12/29 09:37:16;;;;;;;;;;;;;;;;;;5053551;28;1491;-75
2022/12/29 09:39:42;;;;;;;;;;;;;;;;;;5055260;28;1044;-75
2022/12/29 09:42:12;;;;;;;;;;;;;;;;;;5054467;28;1013;-75
2022/12/29 09:44:43;;;;;;;;;;;;;;;;;;5055120;28;1079;-75
2022/12/29 09:47:10;;;;;;;;;;;;;;;;;;5052054;28;2021;-75
2022/12/29 09:49:39;;;;;;;;;;;;;;;;;;5046793;28;1902;-75
2022/12/29 09:52:06;;;;;;;;;;;;;;;;;;5047982;28;2074;-76
2022/12/29 09:54:40;;;;;;;;;;;;;;;;;;5053195;28;2076;-75
2022/12/29 09:57:09;;;;;;;;;;;;;;;;;;5052847;28;1734;-76
2022/12/29 09:59:38;;;;;;;;;;;;;;;;;;5048013;28;972;-76
2022/12/29 10:02:05;;;;;;;;;;;;;;;;;;5058150;28;1245;-76
2022/12/29 10:04:32;;;;;;;;;;;;;;;;;;5053128;28;1306;-76
2022/12/29 10:06:59;;;;;;;;;;;;;;;;;;5053495;28;1417;-76
2022/12/29 10:09:26;;;;;;;;;;;;;;;;;;5053778;28;1309;-76
2022/12/29 10:11:59;;;;;;;;;;;;;;;;;;5058525;28;2049;-78
2022/12/29 10:14:33;;;;;;;;;;;;;;;;;;5052251;28;1241;-76
2022/12/29 10:17:02;;;;;;;;;;;;;;;;;;5048825;28;1868;-76
2022/12/29 10:19:31;;;;;;;;;;;;;;;;;;5056273;28;2062;-76
2022/12/29 10:22:00;;;;;;;;;;;;;;;;;;5053557;28;1110;-76
2022/12/29 10:24:27;;;;;;;;;;;;;;;;;;5054608;28;1032;-76
2022/12/29 10:26:54;;;;;;;;;;;;;;;;;;5052728;28;1286;-76
2022/12/29 10:29:20;;;;;;;;;;;;;;;;;;5042765;28;2030;-76
2022/12/29 10:31:48;;;;;;;;;;;;;;;;;;5051848;28;1969;-77
2022/12/29 10:34:16;;;;;;;;;;;;;;;;;;5047130;28;1838;-77
2022/12/29 10:36:43;;;;;;;;;;;;;;;;;;5049998;28;2030;-76
2022/12/29 10:39:12;;;;;;;;;;;;;;;;;;5058752;28;2065;-76
2022/12/29 10:41:39;;;;;;;;;;;;;;;;;;5044365;28;1899;-75
2022/12/29 10:44:05;;;;;;;;;;;;;;;;;;5051765;28;1174;-75
2022/12/29 10:46:33;;;;;;;;;;;;;;;;;;5052572;28;1405;-75
2022/12/29 10:49:01;;;;;;;;;;;;;;;;;;5052637;28;1450;-75
2022/12/29 10:51:28;;;;;;;;;;;;;;;;;;5052993;28;1967;-75
2022/12/29 10:53:56;;;;;;;;;;;;;;;;;;5058975;28;1953;-76
2022/12/29 10:56:25;;;;;;;;;;;;;;;;;;5052220;28;1842;-77
2022/12/29 10:58:51;;;;;;;;;;;;;;;;;;5043404;28;1906;-76
2022/12/29 11:01:18;;;;;;;;;;;;;;;;;;5043354;28;1758;-79
2022/12/29 11:03:47;;;;;;;;;;;;;;;;;;5053626;28;1727;-76
2022/12/29 11:06:15;;;;;;;;;;;;;;;;;;5051696;28;1404;-76
2022/12/29 11:08:42;;;;;;;;;;;;;;;;;;5052671;28;2012;-76
2022/12/29 11:11:09;;;;;;;;;;;;;;;;;;5053108;28;1910;-76
2022/12/29 11:13:35;;;;;;;;;;;;;;;;;;5057264;28;1929;-76
2022/12/29 11:16:02;;;;;;;;;;;;;;;;;;5054160;28;1389;-77
2022/12/29 11:18:32;;;;;;;;;;;;;;;;;;5054028;28;789;-77
2022/12/29 11:21:00;;;;;;;;;;;;;;;;;;5053500;28;1110;-77
2022/12/29 11:23:30;;;;;;;;;;;;;;;;;;5052564;28;929;-77
2022/12/29 11:26:13;;;;;;;;;;;;;;;;;;5053389;28;1326;-77
2022/12/29 11:28:39;;;;;;;;;;;;;;;;;;5052380;28;1292;-76
2022/12/29 11:31:06;;;;;;;;;;;;;;;;;;5053463;28;1910;-76
2022/12/29 11:33:33;;;;;;;;;;;;;;;;;;5075505;22;3677;-75
2022/12/29 11:35:59;;;;;;;;;;;;;;;;;;5093507;28;1046;-74
2022/12/29 11:38:26;;;;;;;;;;;;;;;;;;5098563;28;928;-73
2022/12/29 11:40:53;;;;;;;;;;;;;;;;;;5101007;28;1031;-73
2022/12/29 11:43:21;;;;;;;;;;;;;;;;;;5090189;28;2086;-73
2022/12/29 11:45:47;;;;;;;;;;;;;;;;;;5092865;28;1212;-73
2022/12/29 11:48:14;;;;;;;;;;;;;;;;;;5092736;28;1047;-73
2022/12/29 11:50:41;;;;;;;;;;;;;;;;;;5093221;28;1906;-73
2022/12/29 11:53:11;;;;;;;;;;;;;;;;;;5072811;28;1321;-73
2022/12/29 11:55:37;;;;;;;;;;;;;;;;;;5093139;28;994;-73
2022/12/29 11:58:04;;;;;;;;;;;;;;;;;;5085861;28;1633;-73
2022/12/29 12:00:31;;;;;;;;;;;;;;;;;;5072748;28;798;-73
2022/12/29 12:02:58;;;;;;;;;;;;;;;;;;5053637;28;1326;-73
2022/12/29 12:05:27;;;;;;;;;;;;;;;;;;5054119;28;1230;-73
2022/12/29 12:07:55;;;;;;;;;;;;;;;;;;5072580;28;1115;-73
2022/12/29 12:10:24;;;;;;;;;;;;;;;;;;5072312;28;1941;-74
2022/12/29 12:12:52;;;;;;;;;;;;;;;;;;5071442;28;1310;-73
2022/12/29 12:15:22;;;;;;;;;;;;;;;;;;5054436;28;1683;-73
2022/12/29 12:17:54;;;;;;;;;;;;;;;;;;5060725;28;1447;-73
2022/12/29 12:20:22;;;;;;;;;;;;;;;;;;5073955;28;1411;-73
2022/12/29 12:22:51;;;;;;;;;;;;;;;;;;5073627;28;1702;-73
2022/12/29 12:25:18;;;;;;;;;;;;;;;;;;5071939;28;1059;-73
2022/12/29 12:27:47;;;;;;;;;;;;;;;;;;5054242;28;1233;-73
2022/12/29 12:30:14;;;;;;;;;;;;;;;;;;5054061;28;1108;-73
2022/12/29 12:32:43;;;;;;;;;;;;;;;;;;5071148;28;1973;-73
2022/12/29 12:35:11;;;;;;;;;;;;;;;;;;5053755;28;1511;-73
2022/12/29 12:37:41;;;;;;;;;;;;;;;;;;5071994;28;1068;-73
2022/12/29 12:40:12;;;;;;;;;;;;;;;;;;5072184;28;932;-73
2022/12/29 12:42:40;;;;;;;;;;;;;;;;;;5071814;28;1309;-74
2022/12/29 12:45:17;;;;;;;;;;;;;;;;;;5052958;28;1371;-74
2022/12/29 12:47:48;;;;;;;;;;;;;;;;;;5054240;28;1108;-73
2022/12/29 12:50:16;;;;;;;;;;;;;;;;;;5071849;28;747;-73
2022/12/29 12:52:46;;;;;;;;;;;;;;;;;;5082192;28;1910;-73
2022/12/29 12:55:19;;;;;;;;;;;;;;;;;;5091551;28;1056;-73
2022/12/29 12:57:49;;;;;;;;;;;;;;;;;;5074082;28;1244;-73
2022/12/29 13:00:17;;;;;;;;;;;;;;;;;;5092013;28;1052;-73
2022/12/29 13:02:47;;;;;;;;;;;;;;;;;;5091236;28;1379;-74
2022/12/29 13:05:18;;;;;;;;;;;;;;;;;;5075321;28;1072;-73
2022/12/29 13:07:46;;;;;;;;;;;;;;;;;;5095908;28;1416;-74
2022/12/29 13:10:20;;;;;;;;;;;;;;;;;;5095913;28;988;-73
2022/12/29 13:12:48;;;;;;;;;;;;;;;;;;5095225;28;1910;-74
2022/12/29 13:15:19;;;;;;;;;;;;;;;;;;5079946;28;1275;-74
2022/12/29 13:17:46;;;;;;;;;;;;;;;;;;5077234;28;1988;-74
2022/12/29 13:20:18;;;;;;;;;;;;;;;;;;5093128;28;1837;-73
2022/12/29 13:22:46;;;;;;;;;;;;;;;;;;5094891;28;1395;-75
2022/12/29 13:25:20;;;;;;;;;;;;;;;;;;5095375;28;1150;-73
2022/12/29 13:27:48;;;;;;;;;;;;;;;;;;5095748;28;1067;-73
2022/12/29 13:30:15;;;;;;;;;;;;;;;;;;5095299;28;766;-73
2022/12/29 13:33:00;;;;;;;;;;;;;;;;;;5076325;28;1977;-73
2022/12/29 13:35:33;;;;;;;;;;;;;;;;;;5081310;28;1111;-74
2022/12/29 13:38:02;;;;;;;;;;;;;;;;;;5057527;28;1342;-73
2022/12/29 13:40:29;;;;;;;;;;;;;;;;;;5073791;28;980;-73
2022/12/29 13:42:56;;;;;;;;;;;;;;;;;;5072462;28;1360;-73
2022/12/29 13:45:23;;;;;;;;;;;;;;;;;;5073908;28;779;-74
2022/12/29 13:47:50;;;;;;;;;;;;;;;;;;5073678;28;1118;-73
2022/12/29 13:50:17;;;;;;;;;;;;;;;;;;5073574;28;1054;-74
2022/12/29 13:52:44;;;;;;;;;;;;;;;;;;5072931;28;1914;-73
2022/12/29 13:55:20;;;;;;;;;;;;;;;;;;5074511;28;1067;-73
2022/12/29 13:57:48;;;;;;;;;;;;;;;;;;5074975;28;782;-73
2022/12/29 14:00:15;;;;;;;;;;;;;;;;;;5075111;28;1189;-73
2022/12/29 14:02:43;;;;;;;;;;;;;;;;;;5056600;28;1279;-73
2022/12/29 14:05:24;;;;;;;;;;;;;;;;;;5075065;28;1098;-72
2022/12/29 14:07:57;;;;;;;;;;;;;;;;;;5074889;28;1365;-73
2022/12/29 14:10:28;;;;;;;;;;;;;;;;;;5056982;28;1139;-73
2022/12/29 14:12:59;;;;;;;;;;;;;;;;;;5073862;28;1987;-73
2022/12/29 14:15:25;;;;;;;;;;;;;;;;;;5074673;28;802;-73
2022/12/29 14:18:06;;;;;;;;;;;;;;;;;;5078232;28;1459;-73
2022/12/29 14:20:32;;;;;;;;;;;;;;;;;;5095775;28;885;-73
2022/12/29 14:22:59;;;;;;;;;;;;;;;;;;5076152;28;1259;-74
2022/12/29 14:25:53;;;;;;;;;;;;;;;;;;5093746;28;1272;-73
2022/12/29 14:28:23;;;;;;;;;;;;;;;;;;5076631;28;1167;-72
2022/12/29 14:30:50;;;;;;;;;;;;;;;;;;5094806;28;921;-73
2022/12/29 14:33:16;;;;;;;;;;;;;;;;;;5094039;28;1910;-73
2022/12/29 14:35:43;;;;;;;;;;;;;;;;;;5075732;28;1103;-73
2022/12/29 14:38:17;;;;;;;;;;;;;;;;;;5056641;28;1150;-73
2022/12/29 14:40:43;;;;;;;;;;;;;;;;;;5074649;28;1091;-74
2022/12/29 14:43:14;;;;;;;;;;;;;;;;;;5073823;28;1463;-73
2022/12/29 14:45:40;;;;;;;;;;;;;;;;;;5074479;28;1067;-73
2022/12/29 14:48:20;;;;;;;;;;;;;;;;;;5056553;28;1454;-73
2022/12/29 14:50:47;;;;;;;;;;;;;;;;;;5058757;28;1368;-73
2022/12/29 14:53:28;;;;;;;;;;;;;;;;;;5076252;28;1969;-73
2022/12/29 14:55:55;;;;;;;;;;;;;;;;;;5097804;28;1646;-72
2022/12/29 14:58:23;;;;;;;;;;;;;;;;;;5092997;28;1081;-73
2022/12/29 15:00:49;;;;;;;;;;;;;;;;;;5097079;28;766;-73
2022/12/29 15:03:18;;;;;;;;;;;;;;;;;;5093523;28;1270;-73
2022/12/29 15:05:44;;;;;;;;;;;;;;;;;;5063009;28;1211;-73
2022/12/29 15:08:11;;;;;;;;;;;;;;;;;;5073840;28;1087;-73
2022/12/29 15:10:38;;;;;;;;;;;;;;;;;;5073830;28;1087;-73
2022/12/29 15:13:05;;;;;;;;;;;;;;;;;;5073090;28;1910;-73
2022/12/29 15:15:36;;;;;;;;;;;;;;;;;;5056129;28;1144;-73
2022/12/29 15:18:12;;;;;;;;;;;;;;;;;;5073899;28;894;-73
2022/12/29 15:20:39;;;;;;;;;;;;;;;;;;5074092;28;743;-73
2022/12/29 15:23:09;;;;;;;;;;;;;;;;;;5072903;28;1281;-73
2022/12/29 15:25:35;;;;;;;;;;;;;;;;;;5055874;28;1441;-72
2022/12/29 15:28:02;;;;;;;;;;;;;;;;;;5055574;28;1075;-71
2022/12/29 15:30:28;;;;;;;;;;;;;;;;;;5073543;28;1079;-72
2022/12/29 15:32:56;;;;;;;;;;;;;;;;;;5054666;28;1918;-72
2022/12/29 15:35:23;;;;;;;;;;;;;;;;;;5055537;28;1252;-72
2022/12/29 15:37:49;;;;;;;;;;;;;;;;;;5073733;28;984;-73
2022/12/29 15:40:22;;;;;;;;;;;;;;;;;;5073620;28;909;-72
2022/12/29 15:42:51;;;;;;;;;;;;;;;;;;5089551;28;1714;-73
2022/12/29 15:45:17;;;;;;;;;;;;;;;;;;5093580;28;1207;-72
2022/12/29 15:47:46;;;;;;;;;;;;;;;;;;5093460;28;971;-72
2022/12/29 15:50:16;;;;;;;;;;;;;;;;;;5093426;28;922;-72
2022/12/29 15:52:42;;;;;;;;;;;;;;;;;;5092782;28;1886;-72
2022/12/29 15:55:11;;;;;;;;;;;;;;;;;;5093308;28;991;-72
2022/12/29 15:57:38;;;;;;;;;;;;;;;;;;5075203;28;1159;-72
2022/12/29 16:00:05;;;;;;;;;;;;;;;;;;5093432;28;1063;-72
2022/12/29 16:02:38;;;;;;;;;;;;;;;;;;5092756;28;1367;-72
2022/12/29 16:05:08;;;;;;;;;;;;;;;;;;5093052;28;1403;-72
2022/12/29 16:07:36;;;;;;;;;;;;;;;;;;5092663;28;1000;-72
2022/12/29 16:10:03;;;;;;;;;;;;;;;;;;5074724;28;1252;-72
2022/12/29 16:12:31;;;;;;;;;;;;;;;;;;5092387;28;1911;-72
2022/12/29 16:14:57;;;;;;;;;;;;;;;;;;5074419;28;1389;-73
2022/12/29 16:17:26;;;;;;;;;;;;;;;;;;5093152;28;846;-72
2022/12/29 16:19:53;;;;;;;;;;;;;;;;;;5093009;28;1075;-72
2022/12/29 16:22:21;;;;;;;;;;;;;;;;;;5074199;28;1410;-72
2022/12/29 16:24:49;;;;;;;;;;;;;;;;;;5071079;28;1502;-72
2022/12/29 16:27:16;;;;;;;;;;;;;;;;;;5092399;28;1780;-72
2022/12/29 16:29:42;;;;;;;;;;;;;;;;;;5092774;28;1085;-72
2022/12/29 16:32:23;;;;;;;;;;;;;;;;;;5091909;28;1965;-72
2022/12/29 16:35:03;;;;;;;;;;;;;;;;;;5092640;28;1419;-72
2022/12/29 16:37:30;;;;;;;;;;;;;;;;;;5072590;28;885;-72
2022/12/29 16:39:58;;;;;;;;;;;;;;;;;;5072104;28;1163;-72
2022/12/29 16:42:34;;;;;;;;;;;;;;;;;;5069698;28;1420;-72
2022/12/29 16:45:01;;;;;;;;;;;;;;;;;;5072056;28;1051;-72
2022/12/29 16:47:28;;;;;;;;;;;;;;;;;;5072388;28;1189;-72
2022/12/29 16:49:54;;;;;;;;;;;;;;;;;;5072662;28;1091;-72
2022/12/29 16:52:21;;;;;;;;;;;;;;;;;;5053643;28;1906;-73
2022/12/29 16:54:49;;;;;;;;;;;;;;;;;;5054418;28;1298;-72
2022/12/29 16:57:17;;;;;;;;;;;;;;;;;;5072216;28;857;-73
2022/12/29 16:59:43;;;;;;;;;;;;;;;;;;5075853;28;1326;-72
2022/12/29 17:02:12;;;;;;;;;;;;;;;;;;5091699;28;999;-73
2022/12/29 17:04:38;;;;;;;;;;;;;;;;;;5092323;28;1254;-72
2022/12/29 17:07:05;;;;;;;;;;;;;;;;;;5092092;28;970;-73
2022/12/29 17:09:31;;;;;;;;;;;;;;;;;;5092246;28;1080;-73
2022/12/29 17:11:58;;;;;;;;;;;;;;;;;;5091552;28;1914;-72
2022/12/29 17:14:30;;;;;;;;;;;;;;;;;;5068228;28;1473;-72
2022/12/29 17:16:56;;;;;;;;;;;;;;;;;;5073116;28;1264;-72
2022/12/29 17:19:25;;;;;;;;;;;;;;;;;;5093693;28;1386;-73
2022/12/29 17:21:51;;;;;;;;;;;;;;;;;;5091853;28;893;-72
2022/12/29 17:24:18;;;;;;;;;;;;;;;;;;5092196;28;1255;-72
2022/12/29 17:26:45;;;;;;;;;;;;;;;;;;5092390;28;1075;-72
2022/12/29 17:29:12;;;;;;;;;;;;;;;;;;5072389;28;1456;-72
2022/12/29 17:31:39;;;;;;;;;;;;;;;;;;5090496;28;1082;-72
2022/12/29 17:34:05;;;;;;;;;;;;;;;;;;5090786;28;2038;-72
2022/12/29 17:36:32;;;;;;;;;;;;;;;;;;5091185;28;1075;-72
2022/12/29 17:38:58;;;;;;;;;;;;;;;;;;5072951;28;1210;-72
2022/12/29 17:41:24;;;;;;;;;;;;;;;;;;5090265;28;1082;-72
2022/12/29 17:43:51;;;;;;;;;;;;;;;;;;5090374;28;1379;-72
2022/12/29 17:46:17;;;;;;;;;;;;;;;;;;5090683;28;1177;-72
2022/12/29 17:48:45;;;;;;;;;;;;;;;;;;5091064;28;897;-72
2022/12/29 17:51:11;;;;;;;;;;;;;;;;;;5092368;28;1075;-73